createdAt,value
2019-05-16T00:03:39.442Z,48.61
2019-05-16T00:08:41.562Z,48.72
2019-05-16T00:13:42.938Z,48.85
2019-05-16T00:18:44.375Z,48.87
2019-05-16T00:23:45.738Z,49.00
2019-05-16T00:28:48.505Z,48.90
2019-05-16T00:33:48.813Z,49.04
2019-05-16T00:38:49.845Z,49.02
2019-05-16T00:43:51.223Z,49.38
2019-05-16T00:48:52.586Z,49.76
2019-05-16T00:53:53.946Z,49.52
2019-05-16T00:58:55.305Z,49.80
2019-05-16T01:03:58.566Z,50.16
2019-05-16T01:08:58.073Z,50.07
2019-05-16T01:13:59.448Z,50.55
2019-05-16T01:19:00.776Z,50.87
2019-05-16T01:24:02.143Z,50.71
2019-05-16T01:29:03.554Z,50.78
2019-05-16T01:34:07.652Z,51.32
2019-05-16T01:39:07.974Z,51.40
2019-05-16T01:44:08.496Z,51.36
2019-05-16T01:49:09.874Z,51.54
2019-05-16T01:54:11.232Z,51.63
2019-05-16T01:59:13.033Z,51.68
2019-05-16T02:04:14.455Z,52.01
2019-05-16T02:09:15.775Z,51.86
2019-05-16T02:14:17.686Z,52.43
2019-05-16T02:19:18.810Z,52.33
2019-05-16T02:24:19.776Z,52.63
2019-05-16T02:29:21.158Z,53.04
2019-05-16T02:34:23.258Z,53.08
2019-05-16T02:39:30.497Z,53.29
2019-05-16T02:44:32.206Z,53.38
2019-05-16T02:49:34.184Z,53.35
2019-05-16T02:54:35.202Z,52.94
2019-05-16T02:59:36.597Z,52.79
2019-05-16T03:04:43.214Z,52.76
2019-05-16T03:09:41.068Z,53.10
2019-05-16T03:14:41.978Z,53.52
2019-05-16T03:19:45.020Z,53.88
2019-05-16T03:24:46.428Z,53.82
2019-05-16T03:29:50.462Z,54.26
2019-05-16T03:34:54.122Z,54.55
2019-05-16T03:39:51.491Z,54.90
2019-05-16T03:44:52.055Z,54.61
2019-05-16T03:49:54.205Z,54.84
2019-05-16T03:54:55.576Z,55.51
2019-05-16T03:59:57.001Z,55.19
2019-05-16T04:05:01.377Z,55.44
2019-05-16T04:10:02.276Z,55.51
2019-05-16T04:15:01.970Z,55.61
2019-05-16T04:20:02.638Z,56.04
2019-05-16T04:25:04.758Z,56.03
2019-05-16T04:30:06.198Z,55.91
2019-05-16T04:35:10.944Z,56.42
2019-05-16T04:40:11.867Z,56.21
2019-05-16T04:45:11.861Z,56.32
2019-05-16T04:50:12.257Z,56.16
2019-05-16T04:55:13.176Z,56.96
2019-05-16T05:00:14.568Z,56.94
2019-05-16T05:05:16.658Z,56.30
2019-05-16T05:10:20.631Z,56.25
2019-05-16T05:15:21.225Z,55.76
2019-05-16T05:20:21.194Z,55.81
2019-05-16T05:25:22.340Z,55.18
2019-05-16T05:30:23.699Z,54.37
2019-05-16T05:35:25.006Z,53.76
2019-05-16T05:40:27.076Z,53.41
2019-05-16T05:45:30.507Z,53.43
2019-05-16T05:50:30.717Z,53.11
2019-05-16T05:55:31.979Z,53.45
2019-05-16T06:00:34.417Z,53.42
2019-05-16T06:05:36.519Z,52.75
2019-05-16T06:10:37.911Z,52.60
2019-05-16T06:15:40.010Z,52.73
2019-05-16T06:20:40.684Z,52.78
2019-05-16T06:25:42.083Z,52.82
2019-05-16T06:30:43.480Z,52.67
2019-05-16T06:35:44.887Z,52.79
2019-05-16T06:40:49.034Z,52.62
2019-05-16T06:45:47.688Z,51.74
2019-05-16T06:50:51.419Z,50.09
2019-05-16T06:55:51.226Z,50.30
2019-05-16T07:00:52.915Z,50.69
2019-05-16T07:05:53.935Z,50.60
2019-05-16T07:10:55.245Z,50.63
2019-05-16T07:15:56.553Z,50.71
2019-05-16T07:21:00.034Z,50.68
2019-05-16T07:26:00.775Z,50.80
2019-05-16T07:31:14.194Z,50.88
2019-05-16T07:36:02.890Z,51.23
2019-05-16T07:41:04.270Z,49.79
2019-05-16T07:46:06.353Z,49.37
2019-05-16T07:51:10.114Z,49.19
2019-05-16T07:56:10.560Z,48.39
2019-05-16T08:01:12.529Z,47.86
2019-05-16T08:06:11.862Z,48.35
2019-05-16T08:11:13.259Z,46.53
2019-05-16T08:16:14.709Z,46.75
2019-05-16T08:26:17.487Z,47.23
2019-05-16T08:31:21.400Z,45.54
2019-05-16T08:36:21.181Z,46.58
2019-05-16T08:41:22.265Z,46.84
2019-05-16T08:46:23.133Z,46.83
2019-05-16T08:51:25.250Z,46.85
2019-05-16T08:56:26.546Z,47.38
2019-05-16T09:01:27.929Z,46.57
2019-05-16T09:06:32.057Z,47.32
2019-05-16T09:10:26.225Z,47.13
2019-05-16T09:11:41.433Z,47.43
2019-05-16T09:16:32.896Z,47.11
2019-05-16T09:21:34.303Z,46.83
2019-05-16T09:26:38.102Z,45.59
2019-05-16T09:31:38.541Z,46.06
2019-05-16T09:36:38.834Z,45.59
2019-05-16T09:41:55.011Z,44.96
2019-05-16T09:46:43.060Z,44.63
2019-05-16T09:51:46.523Z,44.06
2019-05-16T09:56:46.431Z,45.92
2019-05-16T10:01:47.758Z,45.28
2019-05-16T10:06:48.607Z,44.70
2019-05-16T10:12:05.503Z,44.71
2019-05-16T10:16:51.685Z,44.79
2019-05-16T10:21:53.809Z,44.74
2019-05-16T10:26:57.042Z,44.40
2019-05-16T10:31:56.975Z,43.23
2019-05-16T10:36:57.974Z,43.17
2019-05-16T10:41:59.344Z,43.15
2019-05-16T10:47:01.427Z,43.25
2019-05-16T10:52:02.868Z,45.48
2019-05-16T10:57:04.273Z,45.05
2019-05-16T11:02:10.837Z,44.04
2019-05-16T11:07:12.298Z,44.68
2019-05-16T11:12:13.684Z,44.50
2019-05-16T11:17:18.818Z,43.90
2019-05-16T11:22:16.397Z,43.93
2019-05-16T11:27:18.487Z,43.97
2019-05-16T11:32:19.814Z,42.58
2019-05-16T11:37:21.219Z,42.19
2019-05-16T11:42:22.583Z,41.67
2019-05-16T11:47:23.993Z,43.33
2019-05-16T11:52:25.337Z,41.90
2019-05-16T11:57:26.788Z,41.55
2019-05-16T12:02:28.181Z,41.94
2019-05-16T12:07:33.540Z,41.43
2019-05-16T12:12:30.896Z,42.47
2019-05-16T12:17:32.343Z,42.12
2019-05-16T12:22:33.722Z,43.46
2019-05-16T12:27:41.711Z,41.88
2019-05-16T12:32:36.781Z,41.76
2019-05-16T12:37:38.555Z,41.66
2019-05-16T12:42:39.895Z,41.57
2019-05-16T12:47:41.260Z,44.61
2019-05-16T12:52:42.553Z,47.39
2019-05-16T12:57:43.908Z,47.34
2019-05-16T13:02:47.293Z,46.08
2019-05-16T13:07:47.654Z,46.68
2019-05-16T13:12:48.054Z,47.54
2019-05-16T13:17:49.400Z,47.38
2019-05-16T13:22:50.730Z,46.11
2019-05-16T13:27:52.058Z,47.63
2019-05-16T13:32:53.468Z,44.78
2019-05-16T13:37:54.836Z,46.38
2019-05-16T13:42:57.313Z,44.65
2019-05-16T14:49:03.709Z,46.58
2019-05-16T14:54:07.548Z,46.10
2019-05-16T14:59:08.245Z,46.25
2019-05-16T15:04:08.096Z,46.04
2019-05-16T15:09:09.424Z,45.87
2019-05-16T15:14:10.808Z,45.86
2019-05-16T15:19:12.184Z,45.91
2019-05-16T15:24:13.485Z,45.72
2019-05-16T15:29:16.533Z,46.08
2019-05-16T15:34:17.820Z,46.17
2019-05-16T15:39:19.177Z,46.31
2019-05-16T15:44:20.568Z,45.77
2019-05-16T15:49:21.860Z,45.79
2019-05-16T15:54:23.993Z,46.06
2019-05-16T15:59:27.240Z,46.08
2019-05-16T16:41:51.664Z,48.99
2019-05-16T17:11:01.958Z,48.48
2019-05-16T17:16:03.228Z,48.36
2019-05-16T17:21:04.508Z,48.32
2019-05-16T17:26:07.280Z,48.20
2019-05-16T17:31:07.422Z,48.87
2019-05-16T17:36:09.424Z,49.17
2019-05-16T17:41:10.025Z,49.16
2019-05-16T17:46:11.365Z,49.07
2019-05-16T17:51:13.338Z,49.51
2019-05-16T17:56:17.137Z,49.79
2019-05-16T18:01:17.206Z,49.74
2019-05-16T18:06:18.206Z,49.98
2019-05-16T18:11:19.583Z,49.83
2019-05-16T18:16:21.018Z,49.74
2019-05-16T18:21:22.402Z,50.12
2019-05-16T18:26:23.720Z,50.04
2019-05-16T18:31:26.641Z,50.10
2019-05-16T18:36:27.793Z,49.71
2019-05-16T18:41:29.164Z,49.95
2019-05-16T18:46:30.522Z,49.59
2019-05-16T18:51:32.186Z,50.33
2019-05-16T18:56:36.173Z,50.23
2019-05-16T19:01:37.563Z,50.20
2019-05-16T19:06:37.593Z,50.29
2019-05-16T19:11:39.749Z,51.37
2019-05-16T19:16:41.151Z,51.35
2019-05-16T19:21:42.454Z,51.33
2019-05-16T19:26:43.805Z,51.51
2019-05-16T19:31:46.990Z,51.41
2019-05-16T19:36:47.001Z,51.46
2019-05-16T19:41:48.047Z,51.54
2019-05-16T19:46:49.629Z,51.62
2019-05-16T19:52:04.118Z,51.63
2019-05-16T19:57:09.917Z,51.65
2019-05-16T20:02:11.827Z,51.48
2019-05-16T20:07:16.762Z,51.41
2019-05-16T20:12:19.070Z,51.85
2019-05-16T20:17:21.273Z,51.76
2019-05-16T20:22:26.122Z,51.99
2019-05-16T20:27:27.460Z,52.36
2019-05-16T20:32:28.248Z,52.17
2019-05-16T20:37:29.521Z,52.08
2019-05-16T20:42:30.823Z,52.45
2019-05-16T20:47:32.241Z,52.62
2019-05-16T20:52:33.553Z,52.70
2019-05-16T20:57:37.301Z,52.64
2019-05-16T21:02:37.879Z,52.55
2019-05-16T21:07:37.792Z,52.98
2019-05-16T21:12:40.371Z,53.29
2019-05-16T21:17:40.474Z,53.37
2019-05-16T21:22:41.781Z,53.43
2019-05-16T21:27:46.341Z,53.68
2019-05-16T21:32:47.130Z,53.92
2019-05-16T21:37:46.836Z,54.02
2019-05-16T21:42:48.057Z,54.20
2019-05-16T21:47:50.137Z,54.49
2019-05-16T21:52:52.210Z,54.82
2019-05-16T21:57:54.239Z,54.86
2019-05-16T22:02:57.315Z,54.95
2019-05-16T22:07:56.960Z,55.05
2019-05-16T22:12:58.334Z,55.05
2019-05-16T22:17:59.736Z,55.02
2019-05-16T22:23:01.154Z,55.14
2019-05-16T22:28:02.971Z,55.19
2019-05-16T22:33:08.953Z,55.28
2019-05-16T22:38:06.559Z,55.27
2019-05-16T22:43:10.181Z,55.19
2019-05-16T22:48:08.676Z,55.49
2019-05-16T22:53:10.021Z,55.43
2019-05-16T22:58:12.152Z,55.71
2019-05-16T23:03:13.566Z,55.91
2019-05-16T23:08:16.433Z,55.95
2019-05-16T23:13:23.832Z,56.76
2019-05-16T23:18:26.695Z,56.04
2019-05-16T23:23:26.733Z,56.30
2019-05-16T23:28:28.050Z,56.16
2019-05-16T23:33:29.360Z,56.27
2019-05-16T23:38:30.712Z,56.54
2019-05-16T23:43:32.088Z,57.08
2019-05-16T23:48:33.390Z,56.99
2019-05-16T23:53:36.941Z,56.93
2019-05-16T23:58:36.980Z,56.69
